Time;durP1;ratioP1;P1;durP2;ratioP2;P2;SDS_P1;SDS_P2;PMS_P1;PMS_P2;Temp;Humidity;BMP_temperature;BMP_pressure;BME280_temperature;BME280_humidity;BME280_pressure;Samples;Min_cycle;Max_cycle;Signal;HPM_P1;HPM_P2
2023/03/26 00:02:22;;;;;;;18.77;7.47;;;;;;;-147.16;80.86;75995.28;5098855;23;20489;-69
2023/03/26 00:04:49;;;;;;;13.80;7.13;;;;;;;-147.16;81.02;76005.41;5100482;23;20266;-68
2023/03/26 00:07:16;;;;;;;17.13;7.33;;;;;;;-147.16;81.17;76021.59;5065189;23;20265;-69
2023/03/26 00:09:43;;;;;;;14.03;7.13;;;;;;;-147.16;81.24;76027.66;5086797;23;22876;-68
2023/03/26 00:12:09;;;;;;;12.57;7.30;;;;;;;-147.16;81.38;76035.75;5102811;23;20413;-68
2023/03/26 00:14:36;;;;;;;14.97;7.03;;;;;;;-147.16;81.23;76019.56;5095214;23;22077;-67
2023/03/26 00:17:03;;;;;;;15.43;6.97;;;;;;;-147.16;81.32;76033.72;5068862;23;20210;-67
2023/03/26 00:19:31;;;;;;;15.37;6.70;;;;;;;-147.16;80.92;76039.81;5075217;23;20217;-69
2023/03/26 00:21:57;;;;;;;12.67;6.87;;;;;;;-147.16;80.76;76039.81;5059486;23;20374;-65
2023/03/26 00:24:28;;;;;;;14.57;6.80;;;;;;;-147.16;81.22;76047.91;5048061;23;20613;-70
2023/03/26 00:26:55;;;;;;;16.30;6.80;;;;;;;-147.16;80.56;76035.75;5082111;23;22402;-68
2023/03/26 00:29:23;;;;;;;14.27;6.30;;;;;;;-147.16;80.15;76041.84;5087887;23;20226;-69
2023/03/26 00:31:50;;;;;;;14.33;6.63;;;;;;;-147.16;80.31;76035.75;5055671;23;20256;-66
2023/03/26 00:34:17;;;;;;;10.63;6.13;;;;;;;-147.16;80.15;76037.78;5056400;23;21703;-69
2023/03/26 00:36:45;;;;;;;12.20;6.27;;;;;;;-147.16;79.89;76031.72;5060985;23;20212;-67
2023/03/26 00:39:12;;;;;;;13.50;6.40;;;;;;;-147.16;80.13;76047.91;5039838;23;20216;-67
2023/03/26 00:41:41;;;;;;;14.50;6.37;;;;;;;-147.16;80.40;76045.88;5071358;23;21271;-67
2023/03/26 00:44:09;;;;;;;15.17;5.90;;;;;;;-147.16;80.68;76031.72;5081720;23;20503;-66
2023/03/26 00:46:35;;;;;;;13.53;6.23;;;;;;;-147.16;79.93;76041.84;5076315;23;20923;-68
2023/03/26 00:49:09;;;;;;;13.87;6.30;;;;;;;-147.16;80.02;76039.81;5038799;23;21180;-68
2023/03/26 00:51:37;;;;;;;15.83;6.40;;;;;;;-147.16;80.61;76045.88;5079037;23;20208;-64
2023/03/26 00:54:06;;;;;;;12.37;5.93;;;;;;;-147.16;80.08;76051.94;5073345;23;21740;-66
2023/03/26 00:56:33;;;;;;;15.40;6.70;;;;;;;-147.16;80.73;76043.84;5031651;23;25139;-67
2023/03/26 00:59:01;;;;;;;11.47;6.43;;;;;;;-147.16;80.38;76035.75;5079169;23;20224;-67
2023/03/26 01:01:31;;;;;;;10.90;5.80;;;;;;;-147.16;80.02;76027.66;5100907;23;20925;-68
2023/03/26 01:04:19;;;;;;;12.33;6.87;;;;;;;-147.16;79.92;76027.66;5077080;23;20210;-65
2023/03/26 01:06:46;;;;;;;12.33;6.13;;;;;;;-147.16;80.05;76031.72;5014643;23;21268;-65
2023/03/26 01:09:16;;;;;;;14.83;6.90;;;;;;;-147.16;80.25;76027.66;5015777;23;20264;-66
2023/03/26 01:11:43;;;;;;;14.67;6.70;;;;;;;-147.16;79.76;76027.66;5039961;23;20264;-65
2023/03/26 01:14:17;;;;;;;10.67;5.73;;;;;;;-147.16;79.51;76027.66;5045576;23;22705;-67
2023/03/26 01:16:48;;;;;;;16.30;6.73;;;;;;;-147.16;79.87;76019.56;5037734;23;20445;-66
2023/03/26 01:19:47;;;;;;;13.50;6.57;;;;;;;-147.16;79.84;76023.63;5049932;23;20205;-66
2023/03/26 01:22:25;;;;;;;13.57;6.17;;;;;;;-147.16;80.44;76019.56;5029980;23;20210;-65
2023/03/26 01:24:52;;;;;;;10.10;5.53;;;;;;;-147.16;79.90;76015.50;5039662;23;20928;-65
2023/03/26 01:27:24;;;;;;;13.40;5.77;;;;;;;-147.16;79.86;76011.47;5044223;23;21171;-69
2023/03/26 01:30:01;;;;;;;12.70;6.37;;;;;;;-147.16;79.72;76011.47;5040313;23;20204;-65
2023/03/26 01:32:31;;;;;;;11.43;5.40;;;;;;;-147.16;80.12;76007.41;5031649;23;20204;-65
2023/03/26 01:35:05;;;;;;;12.37;6.13;;;;;;;-147.16;79.65;76003.38;5036052;23;21708;-68
2023/03/26 01:37:40;;;;;;;12.00;5.80;;;;;;;-147.16;79.74;76011.47;5031608;23;20293;-68
2023/03/26 01:40:42;;;;;;;10.47;5.47;;;;;;;-147.16;80.55;76009.44;5036371;23;20370;-66
2023/03/26 01:43:21;;;;;;;10.30;5.40;;;;;;;-147.16;80.40;76017.53;5046217;23;20274;-66
2023/03/26 01:45:48;;;;;;;12.63;5.80;;;;;;;-147.16;80.42;76015.50;5020506;23;20333;-66
2023/03/26 01:48:16;;;;;;;11.27;5.40;;;;;;;-147.16;80.49;76009.44;5034000;23;21415;-66
2023/03/26 01:50:42;;;;;;;13.37;5.67;;;;;;;-147.16;80.66;76007.41;5049334;23;21753;-66
2023/03/26 01:53:10;;;;;;;12.53;5.63;;;;;;;-147.16;81.07;76003.38;5030656;23;21931;-65
2023/03/26 01:55:48;;;;;;;13.27;5.80;;;;;;;-147.16;81.03;76007.41;5036209;23;20209;-66
2023/03/26 01:58:41;;;;;;;10.07;4.97;;;;;;;-147.16;81.08;76005.41;5039667;23;21854;-67
2023/03/26 02:01:26;;;;;;;13.23;5.03;;;;;;;-147.16;81.02;75995.28;5052551;23;20239;-66
2023/03/26 02:04:00;;;;;;;10.80;5.43;;;;;;;-147.16;80.55;75995.28;5026124;23;21791;-67
2023/03/26 02:06:41;;;;;;;11.83;5.43;;;;;;;-147.16;80.88;75999.31;5006875;23;20426;-68
2023/03/26 02:09:13;;;;;;;11.97;5.40;;;;;;;-147.16;81.28;75995.28;5041327;23;21333;-67
2023/03/26 02:11:40;;;;;;;9.13;4.97;;;;;;;-147.16;81.68;76005.41;5033561;23;20200;-65
2023/03/26 02:14:07;;;;;;;14.43;5.07;;;;;;;-147.16;81.58;75995.28;5036482;23;20223;-66
2023/03/26 02:16:34;;;;;;;13.57;5.13;;;;;;;-147.16;81.41;75991.22;5038016;23;20219;-66
2023/03/26 02:19:01;;;;;;;10.23;5.57;;;;;;;-147.16;81.41;75995.28;5029152;23;20216;-65
2023/03/26 02:21:28;;;;;;;12.00;5.10;;;;;;;-147.16;81.42;75991.22;5029404;23;22309;-68
2023/03/26 02:24:01;;;;;;;11.40;5.53;;;;;;;-147.16;81.50;75987.19;5043609;23;21139;-65
2023/03/26 02:26:30;;;;;;;14.60;6.03;;;;;;;-147.16;81.67;75987.19;5040899;23;20391;-68
2023/03/26 02:28:57;;;;;;;11.87;5.43;;;;;;;-147.16;81.70;75981.09;5026202;23;20273;-67
2023/03/26 02:31:25;;;;;;;8.50;4.80;;;;;;;-147.16;81.24;75979.09;5034036;23;22264;-65
2023/03/26 02:33:54;;;;;;;14.50;5.83;;;;;;;-147.16;81.29;75991.22;5039589;23;20531;-68
2023/03/26 02:36:25;;;;;;;13.40;5.57;;;;;;;-147.16;81.72;76001.34;5044571;23;21077;-66
2023/03/26 02:38:54;;;;;;;11.63;5.90;;;;;;;-147.16;82.35;75995.28;5036644;23;20939;-65
2023/03/26 02:41:21;;;;;;;11.60;5.37;;;;;;;-147.16;81.85;75999.31;5041197;23;20805;-65
2023/03/26 02:43:47;;;;;;;15.27;5.80;;;;;;;-147.16;81.96;76001.34;5039670;23;20585;-67
2023/03/26 02:46:14;;;;;;;12.27;5.63;;;;;;;-147.16;82.51;76005.41;5044979;23;20374;-66
2023/03/26 02:48:41;;;;;;;13.40;5.27;;;;;;;-147.16;82.39;76001.34;5044883;23;20611;-66
2023/03/26 02:51:08;;;;;;;13.33;5.20;;;;;;;-147.16;81.60;75983.13;5039699;23;20622;-65
2023/03/26 02:53:36;;;;;;;10.73;5.50;;;;;;;-147.16;81.45;75983.13;5048215;23;20366;-67
2023/03/26 02:56:03;;;;;;;11.27;5.30;;;;;;;-147.16;81.49;75987.19;5025762;23;25507;-62
2023/03/26 02:58:30;;;;;;;10.17;5.10;;;;;;;-147.16;81.37;75977.06;5021284;23;20272;-65
2023/03/26 03:00:56;;;;;;;11.53;5.20;;;;;;;-147.16;81.09;75985.16;5027064;23;20703;-66
2023/03/26 03:03:25;;;;;;;12.40;4.83;;;;;;;-147.16;81.41;75975.03;5041041;23;20322;-67
2023/03/26 03:05:53;;;;;;;10.93;4.63;;;;;;;-147.16;80.68;75966.94;5044535;23;20746;-68
2023/03/26 03:08:22;;;;;;;10.13;4.73;;;;;;;-147.16;80.66;75962.88;5032875;23;20423;-67
2023/03/26 03:10:55;;;;;;;10.60;4.90;;;;;;;-147.16;80.78;75962.88;5035642;23;20216;-66
2023/03/26 03:13:22;;;;;;;10.13;4.43;;;;;;;-147.16;80.16;75954.78;5045035;23;20215;-64
2023/03/26 03:15:49;;;;;;;12.30;4.03;;;;;;;-147.16;79.82;75938.59;5040957;23;20212;-64
2023/03/26 03:18:15;;;;;;;10.73;4.13;;;;;;;-147.16;79.97;75936.56;5027182;23;20627;-66
2023/03/26 03:20:43;;;;;;;10.30;4.33;;;;;;;-147.16;79.37;75936.56;5035966;23;20212;-66
2023/03/26 03:23:10;;;;;;;9.20;4.23;;;;;;;-147.16;79.03;75936.56;5040010;23;23273;-66
2023/03/26 03:25:40;;;;;;;11.93;4.63;;;;;;;-147.16;78.89;75932.53;5034922;23;20208;-66
2023/03/26 03:28:07;;;;;;;11.90;4.03;;;;;;;-147.16;78.85;75928.47;5042142;23;20209;-68
2023/03/26 03:30:34;;;;;;;9.53;4.10;;;;;;;-147.16;78.82;75934.56;5049042;23;23333;-66
2023/03/26 03:33:02;;;;;;;7.03;3.50;;;;;;;-147.16;78.18;75924.44;5034535;23;20343;-67
2023/03/26 03:35:29;;;;;;;9.77;3.73;;;;;;;-147.16;78.16;75928.47;5036348;23;20220;-66
2023/03/26 03:37:57;;;;;;;10.80;4.17;;;;;;;-147.16;78.36;75934.56;5043945;23;20258;-66
2023/03/26 03:40:23;;;;;;;11.27;4.03;;;;;;;-147.16;78.53;75942.66;5036666;23;20206;-66
2023/03/26 03:42:50;;;;;;;8.23;3.37;;;;;;;-147.16;78.79;75950.75;5042759;23;20229;-65
2023/03/26 03:45:17;;;;;;;10.27;4.13;;;;;;;-147.16;79.00;75948.72;5032168;23;22682;-66
2023/03/26 03:47:44;;;;;;;10.47;3.70;;;;;;;-147.16;79.16;75942.66;5007781;23;20259;-69
2023/03/26 03:50:10;;;;;;;9.37;4.40;;;;;;;-147.16;79.01;75954.78;5034583;23;20606;-66
2023/03/26 03:52:37;;;;;;;7.00;3.70;;;;;;;-147.16;79.62;75958.84;5034022;23;20220;-67
2023/03/26 03:55:04;;;;;;;6.43;3.70;;;;;;;-147.16;79.11;75950.75;5033568;23;20216;-65
2023/03/26 03:57:32;;;;;;;8.83;4.10;;;;;;;-147.16;79.20;75950.75;5037742;23;20583;-64
2023/03/26 03:59:59;;;;;;;10.00;4.43;;;;;;;-147.16;79.68;75956.81;5036941;23;20204;-65
2023/03/26 04:02:29;;;;;;;9.57;4.03;;;;;;;-147.16;79.43;75948.72;5063590;23;20486;-68
2023/03/26 04:04:59;;;;;;;9.57;4.53;;;;;;;-147.16;79.44;75960.88;5027469;23;20524;-68
2023/03/26 04:07:29;;;;;;;8.70;4.30;;;;;;;-147.16;79.62;75954.78;5035770;23;20209;-68
2023/03/26 04:09:58;;;;;;;8.57;3.70;;;;;;;-147.16;79.30;75956.81;5038285;23;20213;-66
2023/03/26 04:12:28;;;;;;;7.93;3.63;;;;;;;-147.16;79.34;75958.84;5041277;23;20210;-66
2023/03/26 04:14:55;;;;;;;12.23;4.03;;;;;;;-147.16;79.35;75956.81;5017792;23;20214;-67
2023/03/26 04:17:22;;;;;;;13.33;4.63;;;;;;;-147.16;78.92;75956.81;5032977;23;20651;-68
2023/03/26 04:19:51;;;;;;;9.13;4.30;;;;;;;-147.16;79.29;75962.88;5034088;23;22866;-66
2023/03/26 04:22:18;;;;;;;10.10;4.00;;;;;;;-147.16;79.54;75950.75;5027776;23;20949;-67
2023/03/26 04:24:47;;;;;;;8.80;4.03;;;;;;;-147.16;78.51;75938.59;5037293;23;20679;-68
2023/03/26 04:27:16;;;;;;;7.93;3.80;;;;;;;-147.16;78.30;75932.53;5038126;23;20409;-66
2023/03/26 04:29:46;;;;;;;6.97;3.50;;;;;;;-147.16;78.19;75944.66;5040295;23;22116;-66
2023/03/26 04:32:33;;;;;;;8.77;3.50;;;;;;;-147.16;78.09;75926.44;5035554;23;20340;-67
2023/03/26 04:35:02;;;;;;;7.77;3.33;;;;;;;-147.16;77.65;75910.25;5040987;23;20202;-65
2023/03/26 04:37:33;;;;;;;8.60;3.37;;;;;;;-147.16;77.05;75900.13;5016911;23;20204;-66
2023/03/26 04:40:02;;;;;;;8.40;3.53;;;;;;;-147.16;76.92;75918.34;5019990;23;20216;-67
2023/03/26 04:42:32;;;;;;;10.57;4.00;;;;;;;-147.16;77.83;75922.41;5043803;23;23598;-67
2023/03/26 04:44:58;;;;;;;7.63;3.97;;;;;;;-147.16;78.38;75918.34;5033171;23;21630;-64
2023/03/26 04:47:25;;;;;;;9.80;3.90;;;;;;;-147.16;78.15;75918.34;5042149;23;23906;-65
2023/03/26 04:49:52;;;;;;;9.57;4.03;;;;;;;-147.16;78.36;75910.25;5039877;23;20595;-66
2023/03/26 04:52:18;;;;;;;12.77;4.03;;;;;;;-147.16;77.90;75922.41;5035171;23;20737;-67
2023/03/26 04:54:45;;;;;;;15.20;3.97;;;;;;;-147.16;78.05;75918.34;5036180;23;22070;-66
2023/03/26 04:57:20;;;;;;;11.83;4.13;;;;;;;-147.16;77.98;75912.28;5039067;23;20211;-67
2023/03/26 04:59:46;;;;;;;11.63;3.77;;;;;;;-147.16;78.08;75910.25;5046393;23;20378;-65
2023/03/26 05:02:13;;;;;;;10.50;3.97;;;;;;;-147.16;77.06;75912.28;5026866;23;21280;-67
2023/03/26 05:04:40;;;;;;;7.57;3.33;;;;;;;-147.16;77.50;75894.06;5033361;23;20232;-66
2023/03/26 05:07:09;;;;;;;8.67;3.70;;;;;;;-147.16;77.12;75900.13;5030123;23;20209;-66
2023/03/26 05:09:36;;;;;;;10.90;4.10;;;;;;;-147.16;78.28;75922.41;5028276;23;20320;-66
2023/03/26 05:12:03;;;;;;;11.00;4.20;;;;;;;-147.16;78.53;75914.31;5031933;23;22468;-66
2023/03/26 05:14:30;;;;;;;10.93;3.73;;;;;;;-147.16;78.28;75922.41;5036915;23;20268;-68
2023/03/26 05:16:56;;;;;;;10.13;3.67;;;;;;;-147.16;79.18;75916.34;5033331;23;20531;-68
2023/03/26 05:19:23;;;;;;;10.77;3.83;;;;;;;-147.16;78.00;75898.13;5097516;23;20213;-67
2023/03/26 05:21:49;;;;;;;7.73;3.77;;;;;;;-147.16;77.34;75910.25;5053333;23;21370;-68
2023/03/26 05:24:18;;;;;;;8.60;3.50;;;;;;;-147.16;77.18;75892.03;5062910;23;20209;-65
2023/03/26 05:26:45;;;;;;;8.77;3.40;;;;;;;-147.16;76.04;75875.84;5059031;23;20255;-64
2023/03/26 05:29:12;;;;;;;11.23;3.70;;;;;;;-147.16;76.02;75869.78;5082181;23;20645;-67
2023/03/26 05:31:39;;;;;;;10.77;3.67;;;;;;;-147.16;75.32;75873.81;5050809;23;21951;-67
2023/03/26 05:34:06;;;;;;;10.60;3.83;;;;;;;-147.16;75.30;75867.75;5068796;23;20214;-65
2023/03/26 05:36:32;;;;;;;9.93;3.50;;;;;;;-147.16;74.97;75861.69;5054489;23;20681;-66
2023/03/26 05:38:59;;;;;;;5.67;3.07;;;;;;;-147.16;75.10;75859.66;5048559;23;20466;-67
2023/03/26 05:41:25;;;;;;;8.33;3.77;;;;;;;-147.16;75.87;75857.63;5067440;23;20200;-66
2023/03/26 05:43:52;;;;;;;9.87;3.17;;;;;;;-147.16;75.04;75857.63;5059220;23;20216;-68
2023/03/26 05:46:20;;;;;;;8.47;3.90;;;;;;;-147.16;75.24;75851.56;5037105;23;20208;-67
2023/03/26 05:48:48;;;;;;;9.77;3.67;;;;;;;-147.16;74.94;75835.38;5020268;23;20206;-68
2023/03/26 05:51:15;;;;;;;9.20;3.60;;;;;;;-147.16;73.68;75841.44;5041540;23;20333;-67
2023/03/26 05:53:42;;;;;;;8.97;3.80;;;;;;;-147.16;73.54;75825.25;5056465;23;20660;-67
2023/03/26 05:56:09;;;;;;;7.23;3.67;;;;;;;-147.16;73.24;75811.06;5044736;23;20204;-66
2023/03/26 05:58:36;;;;;;;8.40;3.57;;;;;;;-147.16;72.25;75780.72;5002137;23;25841;-69
2023/03/26 06:01:07;;;;;;;14.00;3.53;;;;;;;-147.16;71.80;75784.75;5062202;23;20692;-63
2023/03/26 06:03:35;;;;;;;9.73;3.30;;;;;;;-147.16;71.72;75788.81;5048843;23;21617;-69
2023/03/26 06:06:06;;;;;;;7.27;3.30;;;;;;;-147.16;71.44;75792.88;5032335;23;22260;-66
2023/03/26 06:08:33;;;;;;;6.70;3.40;;;;;;;-147.16;71.20;75792.88;5072231;23;20382;-65
2023/03/26 06:11:01;;;;;;;8.97;3.57;;;;;;;-147.16;71.07;75788.81;5051335;23;20490;-68
2023/03/26 06:13:29;;;;;;;10.50;3.97;;;;;;;-147.16;71.37;75807.03;5031671;23;20840;-66
2023/03/26 06:15:57;;;;;;;8.37;3.27;;;;;;;-147.16;71.31;75800.97;5024670;23;20286;-65
2023/03/26 06:18:24;;;;;;;9.63;3.50;;;;;;;-147.16;72.12;75813.09;5060713;23;21507;-69
2023/03/26 06:20:52;;;;;;;9.57;3.60;;;;;;;-147.16;72.87;75837.38;5070926;23;20566;-68
2023/03/26 06:23:19;;;;;;;8.30;3.70;;;;;;;-147.16;74.99;75855.59;5033021;23;20205;-68
2023/03/26 06:25:46;;;;;;;9.07;3.40;;;;;;;-147.16;75.54;75853.59;5065291;23;20454;-71
2023/03/26 06:28:14;;;;;;;9.03;3.77;;;;;;;-147.16;76.20;75847.50;5061812;23;23934;-70
2023/03/26 06:30:41;;;;;;;9.30;3.87;;;;;;;-147.16;77.03;75861.69;5042819;23;20251;-72
2023/03/26 06:33:07;;;;;;;11.07;3.70;;;;;;;-147.16;79.03;75881.91;5066533;23;20240;-68
2023/03/26 06:35:34;;;;;;;11.73;4.40;;;;;;;-147.16;79.91;75885.97;5052660;23;21324;-71
2023/03/26 06:38:01;;;;;;;10.27;4.00;;;;;;;-147.16;80.17;75906.22;5016062;23;20216;-70
2023/03/26 06:40:31;;;;;;;10.10;3.60;;;;;;;-147.16;81.26;75910.25;5029311;23;20209;-72
2023/03/26 06:42:59;;;;;;;11.70;4.30;;;;;;;-147.16;81.57;75910.25;5050181;23;20220;-69
2023/03/26 06:45:36;;;;;;;13.43;4.47;;;;;;;-147.16;81.76;75902.16;5066990;23;20209;-68
2023/03/26 06:48:03;;;;;;;14.87;4.63;;;;;;;-147.16;81.70;75877.88;5028235;23;26356;-69
2023/03/26 06:50:31;;;;;;;13.00;4.50;;;;;;;-147.16;81.47;75875.84;5053150;23;20213;-70
2023/03/26 06:52:58;;;;;;;10.57;4.23;;;;;;;-147.16;81.20;75881.91;5024686;23;20204;-65
2023/03/26 06:55:25;;;;;;;10.50;4.50;;;;;;;-147.16;81.48;75873.81;5040232;23;20211;-65
2023/03/26 06:57:52;;;;;;;8.77;3.70;;;;;;;-147.16;80.74;75869.78;5047894;23;20236;-67
2023/03/26 07:00:20;;;;;;;10.53;4.10;;;;;;;-147.16;80.55;75853.59;5161940;23;21723;-67
2023/03/26 07:02:46;;;;;;;9.93;3.40;;;;;;;-147.16;80.02;75827.28;5039968;23;20212;-66
2023/03/26 07:05:14;;;;;;;6.87;3.70;;;;;;;-147.16;79.84;75794.88;5048012;23;21984;-65
2023/03/26 07:07:41;;;;;;;6.97;2.93;;;;;;;-147.16;78.60;75776.66;5063994;23;20205;-64
2023/03/26 07:10:12;;;;;;;11.33;2.70;;;;;;;-147.16;77.69;75764.53;5048780;23;20279;-62
2023/03/26 07:12:40;;;;;;;6.83;3.37;;;;;;;-147.16;77.31;75740.25;5059342;23;20815;-66
2023/03/26 07:15:08;;;;;;;12.53;3.50;;;;;;;-147.16;76.74;75717.97;5084309;23;20212;-65
2023/03/26 07:17:35;;;;;;;6.87;3.33;;;;;;;-147.16;74.87;75679.50;5087738;23;21321;-63
2023/03/26 07:20:03;;;;;;;11.67;2.87;;;;;;;-147.16;73.96;75659.28;5073780;23;20814;-65
2023/03/26 07:22:30;;;;;;;6.27;2.50;;;;;;;-147.16;73.73;75667.38;5086452;23;20214;-63
2023/03/26 07:24:57;;;;;;;7.03;2.33;;;;;;;-147.16;73.50;75679.50;5050332;23;20289;-66
2023/03/26 07:27:45;;;;;;;5.03;2.30;;;;;;;-147.16;73.80;75701.78;5041292;23;20205;-67
2023/03/26 07:30:24;;;;;;;6.30;2.80;;;;;;;-147.16;74.44;75703.81;5064876;23;20205;-68
2023/03/26 07:32:53;;;;;;;10.87;3.20;;;;;;;-147.16;74.81;75722.03;5038624;23;21595;-68
2023/03/26 07:35:42;;;;;;;8.50;2.87;;;;;;;-147.16;74.67;75736.19;5043672;23;20205;-69
2023/03/26 07:38:33;;;;;;;8.47;3.23;;;;;;;-147.16;75.40;75740.25;5094929;23;20235;-67
2023/03/26 07:41:18;;;;;;;7.83;2.80;;;;;;;-147.16;74.49;75728.09;5052118;23;20228;-66
2023/03/26 07:43:59;;;;;;;5.97;3.10;;;;;;;-147.16;75.19;75738.22;5038820;23;20283;-71
2023/03/26 07:46:32;;;;;;;6.93;3.73;;;;;;;-147.16;75.17;75740.25;5045000;23;20209;-66
2023/03/26 07:49:00;;;;;;;7.80;3.20;;;;;;;-147.16;74.80;75744.28;5019824;23;20565;-66
2023/03/26 07:51:28;;;;;;;6.23;3.10;;;;;;;-147.16;74.30;75732.13;5005973;23;20206;-69
2023/03/26 07:53:55;;;;;;;10.20;2.97;;;;;;;-147.16;74.29;75742.25;5040940;23;20205;-66
2023/03/26 07:56:29;;;;;;;8.33;3.60;;;;;;;-147.16;74.04;75724.03;5037637;23;20286;-65
2023/03/26 07:59:25;;;;;;;6.77;2.73;;;;;;;-147.16;73.87;75711.91;5046473;23;21153;-66
2023/03/26 08:02:15;;;;;;;5.53;3.10;;;;;;;-147.16;73.22;75685.59;5069467;23;20651;-67
2023/03/26 08:05:09;;;;;;;4.80;3.00;;;;;;;-147.16;71.14;75620.81;5055686;23;21703;-66
2023/03/26 08:07:57;;;;;;;8.40;2.90;;;;;;;-147.16;70.50;75626.88;5063903;23;22886;-67
2023/03/26 08:10:50;;;;;;;7.63;3.13;;;;;;;-147.16;71.41;75649.16;5032242;23;20256;-66
2023/03/26 08:13:56;;;;;;;7.53;3.27;;;;;;;-147.16;70.71;75618.78;5045642;23;20208;-69
2023/03/26 08:16:29;;;;;;;5.00;2.73;;;;;;;-147.16;71.24;75641.06;5015143;23;20664;-65
2023/03/26 08:19:04;;;;;;;5.47;2.70;;;;;;;-147.16;70.12;75693.69;5073120;23;20210;-71
2023/03/26 08:21:38;;;;;;;7.00;2.97;;;;;;;-147.16;71.16;75720.00;5063893;23;20243;-65
2023/03/26 08:24:09;;;;;;;5.77;3.13;;;;;;;-147.16;71.37;75713.94;5098529;23;20206;-65
2023/03/26 08:27:07;;;;;;;6.30;2.80;;;;;;;-147.16;71.42;75720.00;5097296;23;20209;-66
2023/03/26 08:29:56;;;;;;;6.50;3.00;;;;;;;-147.16;71.09;75722.03;5042119;23;20740;-64
2023/03/26 08:32:24;;;;;;;7.47;3.43;;;;;;;-147.16;72.20;75728.09;5071343;23;21394;-64
2023/03/26 08:34:51;;;;;;;6.33;3.27;;;;;;;-147.16;71.67;75715.94;5034664;23;20205;-68
2023/03/26 08:37:18;;;;;;;6.77;3.63;;;;;;;-147.16;72.37;75713.94;5080805;23;22967;-68
2023/03/26 08:39:44;;;;;;;7.07;3.40;;;;;;;-147.16;71.26;75693.69;5043300;23;20211;-68
2023/03/26 08:42:43;;;;;;;6.33;2.90;;;;;;;-147.16;70.82;75687.63;5059321;23;21785;-65
2023/03/26 08:45:21;;;;;;;6.40;3.10;;;;;;;-147.16;71.13;75687.63;5096813;23;20986;-66
2023/03/26 08:48:13;;;;;;;7.73;3.30;;;;;;;-147.16;71.21;75693.69;5046586;23;20951;-66
2023/03/26 10:49:09;;;;;;;2.00;0.90;;;;;;;-147.16;74.08;75774.66;5389407;22;20208;-65
2023/03/26 10:51:54;;;;;;;5.10;1.23;;;;;;;-147.16;75.37;75764.53;5051026;23;21140;-67
2023/03/26 10:54:38;;;;;;;4.20;1.37;;;;;;;-147.16;75.62;75709.88;5063667;23;20201;-70
2023/03/26 10:57:32;;;;;;;3.27;1.30;;;;;;;-147.16;73.76;75675.47;5133636;23;21180;-67
2023/03/26 11:00:26;;;;;;;4.00;2.10;;;;;;;-147.16;73.36;75667.38;5047692;23;20205;-68
2023/03/26 11:02:52;;;;;;;5.70;2.10;;;;;;;-147.16;72.47;75618.78;5044700;23;21237;-67
2023/03/26 11:05:51;;;;;;;3.77;1.70;;;;;;;-147.16;70.15;75592.47;5100802;23;23009;-69
2023/03/26 11:08:24;;;;;;;4.73;2.30;;;;;;;-147.16;70.38;75566.16;5059242;23;20285;-66
2023/03/26 11:11:27;;;;;;;6.83;2.67;;;;;;;-147.16;68.09;75578.31;5032378;23;20313;-66
2023/03/26 11:13:56;;;;;;;3.60;2.00;;;;;;;-147.16;67.52;75574.28;5048596;23;20208;-68
2023/03/26 11:16:29;;;;;;;6.07;2.30;;;;;;;-147.16;66.72;75576.28;5077901;23;21620;-68
2023/03/26 11:19:03;;;;;;;4.90;2.33;;;;;;;-147.16;67.47;75576.28;5060121;23;20283;-67
2023/03/26 11:21:56;;;;;;;3.03;2.13;;;;;;;-147.16;67.54;75592.47;5030866;23;20204;-69
2023/03/26 11:24:25;;;;;;;5.47;2.37;;;;;;;-147.16;67.26;75598.56;5045360;23;20287;-67
2023/03/26 11:27:06;;;;;;;4.70;1.60;;;;;;;-147.16;65.23;75600.59;5040517;23;21278;-67
2023/03/26 11:29:44;;;;;;;2.57;1.60;;;;;;;-147.16;65.38;75622.84;5042229;23;20287;-68
2023/03/26 11:32:21;;;;;;;2.90;1.60;;;;;;;-147.16;65.94;75610.69;5069439;23;22020;-66
2023/03/26 11:34:57;;;;;;;3.37;1.30;;;;;;;-147.16;65.98;75604.63;5060638;23;20899;-65
2023/03/26 11:37:49;;;;;;;6.23;1.70;;;;;;;-147.16;65.52;75584.38;5060305;23;22106;-65
2023/03/26 11:40:24;;;;;;;2.83;1.53;;;;;;;-147.16;64.71;75545.94;5074162;23;25428;-69
2023/03/26 11:42:57;;;;;;;2.90;1.53;;;;;;;-147.16;62.11;75511.53;5093782;23;20781;-69
2023/03/26 11:45:28;;;;;;;3.40;1.50;;;;;;;-147.16;60.75;75487.25;5102125;23;20209;-67
2023/03/26 11:48:08;;;;;;;2.60;1.30;;;;;;;-147.16;59.88;75471.06;5055131;23;21682;-70
2023/03/26 11:50:39;;;;;;;3.23;1.67;;;;;;;-147.16;60.62;75469.03;5041556;23;22900;-67
2023/03/26 11:53:12;;;;;;;2.97;1.70;;;;;;;-147.16;60.69;75456.88;5044994;23;20205;-67
2023/03/26 11:55:57;;;;;;;2.63;1.63;;;;;;;-147.16;60.38;75483.19;5077780;23;20384;-68
2023/03/26 11:59:00;;;;;;;2.93;1.50;;;;;;;-147.16;59.10;75485.22;5069346;23;20412;-68
2023/03/26 12:01:39;;;;;;;3.67;1.27;;;;;;;-147.16;58.95;75454.84;5077044;23;20575;-67
2023/03/26 12:04:15;;;;;;;4.10;1.30;;;;;;;-147.16;58.09;75442.72;5052238;23;20205;-66
2023/03/26 12:06:58;;;;;;;2.73;1.37;;;;;;;-147.16;56.85;75464.97;5076531;23;22142;-66
2023/03/26 12:09:25;;;;;;;3.00;1.17;;;;;;;-147.16;56.80;75483.19;5088146;23;20613;-67
2023/03/26 12:11:58;;;;;;;2.53;1.10;;;;;;;-147.16;56.05;75497.34;5050601;23;20203;-67
2023/03/26 12:14:27;;;;;;;1.20;0.90;;;;;;;-147.16;55.93;75503.44;5079082;23;20644;-67
2023/03/26 12:17:10;;;;;;;2.77;1.33;;;;;;;-147.16;55.09;75469.03;5188317;23;20306;-66
2023/03/26 12:19:43;;;;;;;2.07;1.20;;;;;;;-147.16;54.42;75416.41;5314425;23;20602;-69
2023/03/26 12:22:36;;;;;;;2.37;1.30;;;;;;;-147.16;54.49;75396.16;5120222;23;20205;-65
2023/03/26 12:25:23;;;;;;;3.00;1.20;;;;;;;-147.16;53.33;75436.66;5123092;23;20564;-72
2023/03/26 12:27:57;;;;;;;2.77;1.60;;;;;;;-147.16;53.12;75460.94;5046192;23;20215;-68
2023/03/26 12:30:38;;;;;;;4.33;1.10;;;;;;;-147.16;52.41;75446.75;5060279;23;20292;-64
2023/03/26 12:33:17;;;;;;;6.13;1.57;;;;;;;-147.16;52.02;75408.31;5075352;23;20718;-68
2023/03/26 12:35:43;;;;;;;3.93;1.50;;;;;;;-147.16;51.38;75408.31;5102609;23;20336;-70
2023/03/26 12:38:24;;;;;;;7.03;1.40;;;;;;;-147.16;50.90;75349.63;5107837;23;20427;-71
2023/03/26 12:41:11;;;;;;;2.57;1.17;;;;;;;-147.16;50.27;75343.53;5031995;23;20269;-69
2023/03/26 12:44:16;;;;;;;6.23;1.30;;;;;;;-147.16;51.45;75373.91;5072335;23;21561;-68
2023/03/26 12:47:16;;;;;;;3.80;1.40;;;;;;;-147.16;50.81;75384.03;5105784;23;20571;-70
2023/03/26 12:50:11;;;;;;;2.10;1.40;;;;;;;-147.16;51.29;75363.78;5077920;23;20209;-68
2023/03/26 12:52:51;;;;;;;2.57;1.50;;;;;;;-147.16;50.81;75363.78;5050848;23;20576;-68
2023/03/26 12:55:36;;;;;;;2.73;1.43;;;;;;;-147.16;50.09;75359.75;5038729;23;22215;-69
2023/03/26 12:58:32;;;;;;;8.20;2.00;;;;;;;-147.16;51.30;75365.81;5036356;23;20278;-65
2023/03/26 13:01:14;;;;;;;3.77;1.77;;;;;;;-147.16;51.26;75369.84;5008454;23;21808;-67
2023/03/26 13:04:20;;;;;;;5.63;1.90;;;;;;;-147.16;52.45;75396.16;5053433;23;20742;-68
2023/03/26 13:06:54;;;;;;;3.87;1.43;;;;;;;-147.16;54.14;75412.34;5065435;23;20308;-65
2023/03/26 13:09:46;;;;;;;4.33;1.60;;;;;;;-147.16;53.26;75408.31;5050425;23;20218;-68
2023/03/26 13:12:50;;;;;;;2.40;1.20;;;;;;;-147.16;53.89;75428.53;5086021;23;20603;-70
2023/03/26 13:15:32;;;;;;;3.27;1.47;;;;;;;-147.16;53.01;75410.34;5060946;23;25137;-67
2023/03/26 13:18:20;;;;;;;5.97;1.70;;;;;;;-147.16;54.98;75388.06;5047335;23;20211;-65
2023/03/26 13:20:57;;;;;;;4.50;1.60;;;;;;;-147.16;58.07;75361.75;5095047;23;20965;-66
2023/03/26 13:23:27;;;;;;;6.50;1.90;;;;;;;-147.16;58.59;75347.59;5058256;23;20208;-65
2023/03/26 13:26:16;;;;;;;5.57;2.07;;;;;;;-147.16;59.56;75335.44;5052165;23;20209;-68
2023/03/26 13:29:04;;;;;;;4.07;1.70;;;;;;;-147.16;59.73;75335.44;5072169;23;20294;-42
2023/03/26 13:31:43;;;;;;;3.13;1.70;;;;;;;-147.16;57.89;75349.63;5061838;23;21719;-65
2023/03/26 13:34:18;;;;;;;4.20;1.60;;;;;;;-147.16;57.98;75412.34;5020658;23;20218;-66
2023/03/26 13:36:57;;;;;;;2.60;1.57;;;;;;;-147.16;59.32;75430.56;5015975;23;20211;-66
2023/03/26 13:39:30;;;;;;;2.60;1.73;;;;;;;-147.16;56.80;75452.84;5087074;23;20505;-65
2023/03/26 13:42:06;;;;;;;5.53;1.60;;;;;;;-147.16;56.76;75462.94;5046750;23;21155;-65